sensor_id;sensor_type;location;lat;lon;timestamp;P1;durP1;ratioP1;P2;durP2;ratioP2
50122;SDS011;36021;48.670;6.184;2023-03-24T00:00:08;7.07;;;3.65;;
50122;SDS011;36021;48.670;6.184;2023-03-24T00:02:36;6.95;;;3.47;;
50122;SDS011;36021;48.670;6.184;2023-03-24T00:05:09;7.88;;;4.00;;
50122;SDS011;36021;48.670;6.184;2023-03-24T00:07:40;5.82;;;3.65;;
50122;SDS011;36021;48.670;6.184;2023-03-24T00:10:08;7.85;;;3.85;;
50122;SDS011;36021;48.670;6.184;2023-03-24T00:15:14;10.53;;;4.40;;
50122;SDS011;36021;48.670;6.184;2023-03-24T00:17:43;7.35;;;3.78;;
50122;SDS011;36021;48.670;6.184;2023-03-24T00:20:12;7.47;;;4.15;;
50122;SDS011;36021;48.670;6.184;2023-03-24T00:22:39;7.97;;;3.57;;
50122;SDS011;36021;48.670;6.184;2023-03-24T00:25:14;6.53;;;3.65;;
50122;SDS011;36021;48.670;6.184;2023-03-24T00:27:45;5.85;;;3.60;;
50122;SDS011;36021;48.670;6.184;2023-03-24T00:30:13;6.20;;;4.13;;
50122;SDS011;36021;48.670;6.184;2023-03-24T00:32:40;11.20;;;3.65;;
50122;SDS011;36021;48.670;6.184;2023-03-24T00:35:07;6.38;;;4.18;;
50122;SDS011;36021;48.670;6.184;2023-03-24T00:37:35;5.32;;;3.47;;
50122;SDS011;36021;48.670;6.184;2023-03-24T00:40:05;6.38;;;3.47;;
50122;SDS011;36021;48.670;6.184;2023-03-24T00:42:40;8.93;;;4.50;;
50122;SDS011;36021;48.670;6.184;2023-03-24T00:45:12;4.65;;;3.50;;
50122;SDS011;36021;48.670;6.184;2023-03-24T00:47:41;6.10;;;3.38;;
50122;SDS011;36021;48.670;6.184;2023-03-24T00:50:13;6.85;;;3.72;;
50122;SDS011;36021;48.670;6.184;2023-03-24T00:52:41;4.70;;;3.45;;
50122;SDS011;36021;48.670;6.184;2023-03-24T00:55:09;7.88;;;4.25;;
50122;SDS011;36021;48.670;6.184;2023-03-24T00:57:41;4.85;;;3.00;;
50122;SDS011;36021;48.670;6.184;2023-03-24T01:00:20;4.35;;;2.78;;
50122;SDS011;36021;48.670;6.184;2023-03-24T01:02:49;6.07;;;3.65;;
50122;SDS011;36021;48.670;6.184;2023-03-24T01:05:19;9.55;;;4.70;;
50122;SDS011;36021;48.670;6.184;2023-03-24T01:07:47;7.22;;;4.00;;
50122;SDS011;36021;48.670;6.184;2023-03-24T01:12:46;6.00;;;3.08;;
50122;SDS011;36021;48.670;6.184;2023-03-24T01:15:14;8.80;;;2.90;;
50122;SDS011;36021;48.670;6.184;2023-03-24T01:17:41;5.03;;;3.25;;
50122;SDS011;36021;48.670;6.184;2023-03-24T01:20:08;7.63;;;4.28;;
50122;SDS011;36021;48.670;6.184;2023-03-24T01:22:38;9.32;;;3.58;;
50122;SDS011;36021;48.670;6.184;2023-03-24T01:25:16;10.52;;;3.50;;
50122;SDS011;36021;48.670;6.184;2023-03-24T01:27:45;4.95;;;2.95;;
50122;SDS011;36021;48.670;6.184;2023-03-24T01:30:13;5.85;;;3.53;;
50122;SDS011;36021;48.670;6.184;2023-03-24T01:32:41;7.70;;;3.38;;
50122;SDS011;36021;48.670;6.184;2023-03-24T01:35:08;6.00;;;3.20;;
50122;SDS011;36021;48.670;6.184;2023-03-24T01:37:35;6.90;;;3.97;;
50122;SDS011;36021;48.670;6.184;2023-03-24T01:40:02;7.55;;;3.40;;
50122;SDS011;36021;48.670;6.184;2023-03-24T01:42:31;4.90;;;3.28;;
50122;SDS011;36021;48.670;6.184;2023-03-24T01:44:59;5.78;;;3.08;;
50122;SDS011;36021;48.670;6.184;2023-03-24T01:47:27;6.95;;;3.55;;
50122;SDS011;36021;48.670;6.184;2023-03-24T01:49:57;7.88;;;2.60;;
50122;SDS011;36021;48.670;6.184;2023-03-24T01:52:29;7.75;;;3.72;;
50122;SDS011;36021;48.670;6.184;2023-03-24T01:59:58;4.18;;;2.88;;
50122;SDS011;36021;48.670;6.184;2023-03-24T02:02:48;5.88;;;2.63;;
50122;SDS011;36021;48.670;6.184;2023-03-24T02:05:22;4.13;;;2.65;;
50122;SDS011;36021;48.670;6.184;2023-03-24T02:10:43;7.68;;;3.30;;
50122;SDS011;36021;48.670;6.184;2023-03-24T02:13:08;6.55;;;3.15;;
50122;SDS011;36021;48.670;6.184;2023-03-24T02:15:38;5.15;;;2.70;;
50122;SDS011;36021;48.670;6.184;2023-03-24T02:18:35;6.75;;;3.33;;
50122;SDS011;36021;48.670;6.184;2023-03-24T02:27:38;7.28;;;3.17;;
50122;SDS011;36021;48.670;6.184;2023-03-24T02:30:29;5.00;;;2.90;;
50122;SDS011;36021;48.670;6.184;2023-03-24T02:41:42;4.03;;;3.05;;
50122;SDS011;36021;48.670;6.184;2023-03-24T02:44:19;4.15;;;2.47;;
50122;SDS011;36021;48.670;6.184;2023-03-24T02:46:48;3.78;;;2.80;;
50122;SDS011;36021;48.670;6.184;2023-03-24T02:49:30;5.10;;;2.67;;
50122;SDS011;36021;48.670;6.184;2023-03-24T02:57:45;3.88;;;2.90;;
50122;SDS011;36021;48.670;6.184;2023-03-24T03:00:45;5.88;;;3.10;;
50122;SDS011;36021;48.670;6.184;2023-03-24T03:03:44;5.28;;;3.13;;
50122;SDS011;36021;48.670;6.184;2023-03-24T03:06:27;6.57;;;2.70;;
50122;SDS011;36021;48.670;6.184;2023-03-24T03:08:59;5.80;;;3.30;;
50122;SDS011;36021;48.670;6.184;2023-03-24T03:11:33;4.22;;;3.05;;
50122;SDS011;36021;48.670;6.184;2023-03-24T03:14:02;5.05;;;2.80;;
50122;SDS011;36021;48.670;6.184;2023-03-24T03:16:42;5.50;;;3.20;;
50122;SDS011;36021;48.670;6.184;2023-03-24T03:19:15;6.50;;;2.95;;
50122;SDS011;36021;48.670;6.184;2023-03-24T03:21:45;5.10;;;2.90;;
50122;SDS011;36021;48.670;6.184;2023-03-24T03:24:14;4.37;;;2.20;;
50122;SDS011;36021;48.670;6.184;2023-03-24T03:26:44;6.68;;;3.83;;
50122;SDS011;36021;48.670;6.184;2023-03-24T03:29:16;6.95;;;3.97;;
50122;SDS011;36021;48.670;6.184;2023-03-24T03:31:56;4.60;;;2.92;;
50122;SDS011;36021;48.670;6.184;2023-03-24T03:34:45;6.85;;;3.45;;
50122;SDS011;36021;48.670;6.184;2023-03-24T03:40:30;3.50;;;2.50;;
50122;SDS011;36021;48.670;6.184;2023-03-24T03:43:03;5.28;;;3.25;;
50122;SDS011;36021;48.670;6.184;2023-03-24T03:45:31;4.25;;;2.67;;
50122;SDS011;36021;48.670;6.184;2023-03-24T03:47:59;4.43;;;2.75;;
50122;SDS011;36021;48.670;6.184;2023-03-24T03:50:26;4.28;;;2.30;;
50122;SDS011;36021;48.670;6.184;2023-03-24T03:52:53;3.40;;;2.20;;
50122;SDS011;36021;48.670;6.184;2023-03-24T03:55:20;2.50;;;2.25;;
50122;SDS011;36021;48.670;6.184;2023-03-24T03:57:46;3.78;;;2.13;;
50122;SDS011;36021;48.670;6.184;2023-03-24T04:00:40;4.18;;;2.53;;
50122;SDS011;36021;48.670;6.184;2023-03-24T04:03:36;4.50;;;2.10;;
50122;SDS011;36021;48.670;6.184;2023-03-24T04:06:24;3.55;;;2.22;;
50122;SDS011;36021;48.670;6.184;2023-03-24T04:12:20;2.47;;;2.25;;
50122;SDS011;36021;48.670;6.184;2023-03-24T04:15:33;4.80;;;2.45;;
50122;SDS011;36021;48.670;6.184;2023-03-24T04:18:36;3.55;;;2.38;;
50122;SDS011;36021;48.670;6.184;2023-03-24T04:24:00;2.53;;;2.30;;
50122;SDS011;36021;48.670;6.184;2023-03-24T04:26:47;2.20;;;1.70;;
50122;SDS011;36021;48.670;6.184;2023-03-24T04:29:37;2.70;;;1.30;;
50122;SDS011;36021;48.670;6.184;2023-03-24T04:32:30;1.80;;;1.42;;
50122;SDS011;36021;48.670;6.184;2023-03-24T04:35:06;2.88;;;1.73;;
50122;SDS011;36021;48.670;6.184;2023-03-24T04:38:12;2.92;;;1.30;;
50122;SDS011;36021;48.670;6.184;2023-03-24T04:40:45;2.20;;;1.40;;
50122;SDS011;36021;48.670;6.184;2023-03-24T04:43:16;3.10;;;1.52;;
50122;SDS011;36021;48.670;6.184;2023-03-24T04:45:46;2.75;;;1.95;;
50122;SDS011;36021;48.670;6.184;2023-03-24T04:48:36;3.00;;;2.08;;
50122;SDS011;36021;48.670;6.184;2023-03-24T04:51:08;3.90;;;2.17;;
50122;SDS011;36021;48.670;6.184;2023-03-24T04:53:56;2.22;;;2.00;;
50122;SDS011;36021;48.670;6.184;2023-03-24T04:56:33;5.45;;;2.95;;
50122;SDS011;36021;48.670;6.184;2023-03-24T04:59:15;4.97;;;2.58;;
50122;SDS011;36021;48.670;6.184;2023-03-24T05:01:42;4.68;;;2.67;;
50122;SDS011;36021;48.670;6.184;2023-03-24T05:04:29;6.68;;;2.72;;
50122;SDS011;36021;48.670;6.184;2023-03-24T05:07:03;3.88;;;2.50;;
50122;SDS011;36021;48.670;6.184;2023-03-24T05:09:29;3.80;;;2.40;;
50122;SDS011;36021;48.670;6.184;2023-03-24T05:11:57;4.22;;;2.90;;
50122;SDS011;36021;48.670;6.184;2023-03-24T05:14:23;5.30;;;3.40;;
50122;SDS011;36021;48.670;6.184;2023-03-24T05:16:49;4.72;;;3.22;;
50122;SDS011;36021;48.670;6.184;2023-03-24T05:19:17;7.18;;;3.67;;
50122;SDS011;36021;48.670;6.184;2023-03-24T05:21:43;9.88;;;3.13;;
50122;SDS011;36021;48.670;6.184;2023-03-24T05:24:10;8.65;;;3.67;;
50122;SDS011;36021;48.670;6.184;2023-03-24T05:26:36;5.15;;;3.00;;
50122;SDS011;36021;48.670;6.184;2023-03-24T05:29:08;8.27;;;4.03;;
50122;SDS011;36021;48.670;6.184;2023-03-24T05:31:33;4.72;;;3.33;;
50122;SDS011;36021;48.670;6.184;2023-03-24T05:34:11;5.43;;;3.50;;
50122;SDS011;36021;48.670;6.184;2023-03-24T05:36:51;9.73;;;4.07;;
50122;SDS011;36021;48.670;6.184;2023-03-24T05:39:19;10.90;;;5.32;;
50122;SDS011;36021;48.670;6.184;2023-03-24T05:42:08;6.85;;;3.95;;
50122;SDS011;36021;48.670;6.184;2023-03-24T05:44:34;9.52;;;4.70;;
50122;SDS011;36021;48.670;6.184;2023-03-24T05:47:03;6.65;;;4.70;;
50122;SDS011;36021;48.670;6.184;2023-03-24T05:49:30;6.57;;;3.92;;
50122;SDS011;36021;48.670;6.184;2023-03-24T05:51:56;6.60;;;4.43;;
50122;SDS011;36021;48.670;6.184;2023-03-24T05:54:22;8.23;;;4.97;;
50122;SDS011;36021;48.670;6.184;2023-03-24T05:56:52;5.50;;;4.07;;
50122;SDS011;36021;48.670;6.184;2023-03-24T05:59:36;7.45;;;4.20;;
50122;SDS011;36021;48.670;6.184;2023-03-24T06:02:20;7.18;;;3.60;;
50122;SDS011;36021;48.670;6.184;2023-03-24T06:04:52;8.50;;;4.80;;
50122;SDS011;36021;48.670;6.184;2023-03-24T06:07:20;8.75;;;5.47;;
50122;SDS011;36021;48.670;6.184;2023-03-24T06:09:50;9.88;;;5.60;;
50122;SDS011;36021;48.670;6.184;2023-03-24T06:12:18;10.63;;;6.50;;
50122;SDS011;36021;48.670;6.184;2023-03-24T06:14:53;12.32;;;6.15;;
50122;SDS011;36021;48.670;6.184;2023-03-24T06:17:19;7.78;;;5.97;;
50122;SDS011;36021;48.670;6.184;2023-03-24T06:19:46;12.38;;;6.50;;
50122;SDS011;36021;48.670;6.184;2023-03-24T06:22:35;6.85;;;4.85;;
50122;SDS011;36021;48.670;6.184;2023-03-24T06:25:04;8.48;;;4.82;;
50122;SDS011;36021;48.670;6.184;2023-03-24T06:27:30;8.02;;;4.90;;
50122;SDS011;36021;48.670;6.184;2023-03-24T06:30:00;9.45;;;6.20;;
50122;SDS011;36021;48.670;6.184;2023-03-24T06:32:27;11.70;;;5.10;;
50122;SDS011;36021;48.670;6.184;2023-03-24T06:34:53;10.60;;;6.18;;
50122;SDS011;36021;48.670;6.184;2023-03-24T06:37:38;9.77;;;5.07;;
50122;SDS011;36021;48.670;6.184;2023-03-24T06:40:09;8.30;;;4.82;;
50122;SDS011;36021;48.670;6.184;2023-03-24T06:42:44;5.22;;;3.60;;
50122;SDS011;36021;48.670;6.184;2023-03-24T06:45:10;5.85;;;4.25;;
50122;SDS011;36021;48.670;6.184;2023-03-24T06:47:36;5.53;;;3.55;;
50122;SDS011;36021;48.670;6.184;2023-03-24T06:50:02;4.78;;;3.20;;
50122;SDS011;36021;48.670;6.184;2023-03-24T06:52:29;5.50;;;4.35;;
50122;SDS011;36021;48.670;6.184;2023-03-24T06:54:56;7.45;;;4.97;;
50122;SDS011;36021;48.670;6.184;2023-03-24T06:57:24;9.15;;;4.63;;
50122;SDS011;36021;48.670;6.184;2023-03-24T07:02:51;5.75;;;4.18;;
50122;SDS011;36021;48.670;6.184;2023-03-24T07:05:17;4.80;;;3.20;;
50122;SDS011;36021;48.670;6.184;2023-03-24T07:07:43;5.20;;;3.60;;
50122;SDS011;36021;48.670;6.184;2023-03-24T07:10:27;8.05;;;3.65;;
50122;SDS011;36021;48.670;6.184;2023-03-24T07:12:52;6.25;;;3.35;;
50122;SDS011;36021;48.670;6.184;2023-03-24T07:15:20;2.97;;;2.17;;
50122;SDS011;36021;48.670;6.184;2023-03-24T07:17:47;3.55;;;2.58;;
50122;SDS011;36021;48.670;6.184;2023-03-24T07:20:47;3.78;;;2.17;;
50122;SDS011;36021;48.670;6.184;2023-03-24T07:23:18;2.30;;;1.42;;
50122;SDS011;36021;48.670;6.184;2023-03-24T07:26:04;3.85;;;1.90;;
50122;SDS011;36021;48.670;6.184;2023-03-24T07:28:39;4.03;;;1.77;;
50122;SDS011;36021;48.670;6.184;2023-03-24T07:31:05;3.63;;;2.00;;
50122;SDS011;36021;48.670;6.184;2023-03-24T07:33:35;4.40;;;2.28;;
50122;SDS011;36021;48.670;6.184;2023-03-24T07:36:02;2.92;;;1.45;;
50122;SDS011;36021;48.670;6.184;2023-03-24T07:38:28;2.05;;;1.60;;
50122;SDS011;36021;48.670;6.184;2023-03-24T07:41:00;3.70;;;2.13;;
50122;SDS011;36021;48.670;6.184;2023-03-24T07:43:28;2.65;;;2.00;;
50122;SDS011;36021;48.670;6.184;2023-03-24T07:46:04;2.60;;;1.50;;
50122;SDS011;36021;48.670;6.184;2023-03-24T07:48:31;3.80;;;2.38;;
50122;SDS011;36021;48.670;6.184;2023-03-24T07:50:58;3.53;;;1.80;;
50122;SDS011;36021;48.670;6.184;2023-03-24T07:53:42;1.58;;;1.38;;
50122;SDS011;36021;48.670;6.184;2023-03-24T07:56:10;1.02;;;0.90;;
50122;SDS011;36021;48.670;6.184;2023-03-24T07:58:44;2.40;;;1.55;;
50122;SDS011;36021;48.670;6.184;2023-03-24T08:01:37;2.20;;;1.83;;
50122;SDS011;36021;48.670;6.184;2023-03-24T08:04:11;1.95;;;1.85;;
50122;SDS011;36021;48.670;6.184;2023-03-24T08:07:07;2.60;;;1.40;;
50122;SDS011;36021;48.670;6.184;2023-03-24T08:09:33;2.08;;;1.73;;
50122;SDS011;36021;48.670;6.184;2023-03-24T08:11:59;3.60;;;2.38;;
50122;SDS011;36021;48.670;6.184;2023-03-24T08:14:25;2.90;;;2.03;;
50122;SDS011;36021;48.670;6.184;2023-03-24T08:16:52;4.28;;;2.20;;
50122;SDS011;36021;48.670;6.184;2023-03-24T08:19:18;3.88;;;2.40;;
50122;SDS011;36021;48.670;6.184;2023-03-24T08:21:43;2.50;;;1.85;;
50122;SDS011;36021;48.670;6.184;2023-03-24T08:24:09;3.15;;;2.25;;
50122;SDS011;36021;48.670;6.184;2023-03-24T08:26:34;2.70;;;1.77;;
50122;SDS011;36021;48.670;6.184;2023-03-24T08:29:00;3.25;;;1.58;;
50122;SDS011;36021;48.670;6.184;2023-03-24T08:31:33;2.72;;;1.83;;
50122;SDS011;36021;48.670;6.184;2023-03-24T08:34:01;5.53;;;1.92;;
50122;SDS011;36021;48.670;6.184;2023-03-24T08:36:28;3.17;;;2.25;;
50122;SDS011;36021;48.670;6.184;2023-03-24T08:38:54;2.92;;;1.33;;
50122;SDS011;36021;48.670;6.184;2023-03-24T08:41:22;2.40;;;1.67;;
50122;SDS011;36021;48.670;6.184;2023-03-24T08:46:30;1.88;;;1.35;;
50122;SDS011;36021;48.670;6.184;2023-03-24T08:48:57;1.60;;;1.25;;
50122;SDS011;36021;48.670;6.184;2023-03-24T08:51:23;3.05;;;1.60;;
50122;SDS011;36021;48.670;6.184;2023-03-24T08:53:50;1.90;;;1.13;;
50122;SDS011;36021;48.670;6.184;2023-03-24T08:56:17;2.15;;;1.70;;
50122;SDS011;36021;48.670;6.184;2023-03-24T08:58:44;2.65;;;1.80;;
50122;SDS011;36021;48.670;6.184;2023-03-24T09:01:12;5.07;;;2.90;;
50122;SDS011;36021;48.670;6.184;2023-03-24T09:03:38;3.50;;;2.35;;
50122;SDS011;36021;48.670;6.184;2023-03-24T09:06:05;4.20;;;1.25;;
50122;SDS011;36021;48.670;6.184;2023-03-24T09:08:31;2.33;;;1.65;;
50122;SDS011;36021;48.670;6.184;2023-03-24T09:10:57;2.28;;;1.52;;
50122;SDS011;36021;48.670;6.184;2023-03-24T09:13:24;5.70;;;1.75;;
50122;SDS011;36021;48.670;6.184;2023-03-24T09:15:51;1.30;;;1.20;;
50122;SDS011;36021;48.670;6.184;2023-03-24T09:18:19;1.17;;;1.08;;
50122;SDS011;36021;48.670;6.184;2023-03-24T09:20:46;1.77;;;1.10;;
50122;SDS011;36021;48.670;6.184;2023-03-24T09:23:12;1.90;;;1.58;;
50122;SDS011;36021;48.670;6.184;2023-03-24T09:25:39;2.35;;;1.30;;
50122;SDS011;36021;48.670;6.184;2023-03-24T09:28:05;5.03;;;1.33;;
50122;SDS011;36021;48.670;6.184;2023-03-24T09:30:32;3.88;;;1.33;;
50122;SDS011;36021;48.670;6.184;2023-03-24T09:32:58;3.05;;;1.50;;
50122;SDS011;36021;48.670;6.184;2023-03-24T09:35:24;4.10;;;2.08;;
50122;SDS011;36021;48.670;6.184;2023-03-24T09:37:51;3.70;;;1.75;;
50122;SDS011;36021;48.670;6.184;2023-03-24T09:40:19;0.93;;;0.88;;
50122;SDS011;36021;48.670;6.184;2023-03-24T09:43:35;0.98;;;0.85;;
50122;SDS011;36021;48.670;6.184;2023-03-24T09:45:47;2.67;;;1.02;;
50122;SDS011;36021;48.670;6.184;2023-03-24T09:48:27;1.05;;;0.70;;
50122;SDS011;36021;48.670;6.184;2023-03-24T09:50:57;1.30;;;0.40;;
50122;SDS011;36021;48.670;6.184;2023-03-24T09:56:20;1.83;;;0.65;;
50122;SDS011;36021;48.670;6.184;2023-03-24T09:58:48;0.90;;;0.90;;
50122;SDS011;36021;48.670;6.184;2023-03-24T10:01:20;1.98;;;0.52;;
50122;SDS011;36021;48.670;6.184;2023-03-24T10:03:46;2.13;;;0.68;;
50122;SDS011;36021;48.670;6.184;2023-03-24T10:06:16;3.28;;;0.73;;
50122;SDS011;36021;48.670;6.184;2023-03-24T10:17:24;1.08;;;0.50;;
50122;SDS011;36021;48.670;6.184;2023-03-24T10:22:57;0.43;;;0.43;;
50122;SDS011;36021;48.670;6.184;2023-03-24T10:27:59;2.35;;;0.85;;
50122;SDS011;36021;48.670;6.184;2023-03-24T10:30:33;1.88;;;0.57;;
50122;SDS011;36021;48.670;6.184;2023-03-24T10:33:03;6.72;;;1.23;;
50122;SDS011;36021;48.670;6.184;2023-03-24T10:35:34;2.25;;;0.80;;
50122;SDS011;36021;48.670;6.184;2023-03-24T10:38:03;6.68;;;0.80;;
50122;SDS011;36021;48.670;6.184;2023-03-24T10:40:40;2.38;;;1.50;;
50122;SDS011;36021;48.670;6.184;2023-03-24T10:43:08;2.47;;;0.75;;
50122;SDS011;36021;48.670;6.184;2023-03-24T10:45:35;1.10;;;0.63;;
50122;SDS011;36021;48.670;6.184;2023-03-24T10:48:03;2.50;;;0.45;;
50122;SDS011;36021;48.670;6.184;2023-03-24T10:50:31;1.50;;;0.70;;
50122;SDS011;36021;48.670;6.184;2023-03-24T10:52:57;2.05;;;0.73;;
50122;SDS011;36021;48.670;6.184;2023-03-24T10:55:30;1.55;;;0.57;;
50122;SDS011;36021;48.670;6.184;2023-03-24T10:58:00;4.78;;;0.80;;
50122;SDS011;36021;48.670;6.184;2023-03-24T11:00:27;1.08;;;0.98;;
50122;SDS011;36021;48.670;6.184;2023-03-24T11:03:05;1.70;;;0.77;;
50122;SDS011;36021;48.670;6.184;2023-03-24T11:05:36;0.90;;;0.57;;
50122;SDS011;36021;48.670;6.184;2023-03-24T11:08:37;0.47;;;0.47;;
50122;SDS011;36021;48.670;6.184;2023-03-24T11:10:55;2.25;;;0.80;;
50122;SDS011;36021;48.670;6.184;2023-03-24T11:13:30;4.05;;;1.00;;
50122;SDS011;36021;48.670;6.184;2023-03-24T11:16:15;1.23;;;0.80;;
50122;SDS011;36021;48.670;6.184;2023-03-24T11:18:59;0.90;;;0.70;;
50122;SDS011;36021;48.670;6.184;2023-03-24T11:21:26;1.85;;;0.70;;
50122;SDS011;36021;48.670;6.184;2023-03-24T11:23:56;1.20;;;0.98;;
50122;SDS011;36021;48.670;6.184;2023-03-24T11:28:56;0.85;;;0.55;;
50122;SDS011;36021;48.670;6.184;2023-03-24T11:31:25;2.63;;;0.75;;
50122;SDS011;36021;48.670;6.184;2023-03-24T11:34:12;0.65;;;0.65;;
50122;SDS011;36021;48.670;6.184;2023-03-24T11:36:48;3.38;;;0.73;;
50122;SDS011;36021;48.670;6.184;2023-03-24T11:44:31;1.13;;;0.65;;
50122;SDS011;36021;48.670;6.184;2023-03-24T11:52:38;1.85;;;0.73;;
50122;SDS011;36021;48.670;6.184;2023-03-24T11:55:22;0.68;;;0.50;;
50122;SDS011;36021;48.670;6.184;2023-03-24T12:01:03;1.10;;;1.00;;
50122;SDS011;36021;48.670;6.184;2023-03-24T12:14:11;1.48;;;0.40;;
50122;SDS011;36021;48.670;6.184;2023-03-24T12:19:56;0.52;;;0.40;;
50122;SDS011;36021;48.670;6.184;2023-03-24T12:22:46;1.05;;;0.75;;
50122;SDS011;36021;48.670;6.184;2023-03-24T12:30:29;6.65;;;4.82;;
50122;SDS011;36021;48.670;6.184;2023-03-24T12:39:11;3.58;;;2.60;;
50122;SDS011;36021;48.670;6.184;2023-03-24T12:42:06;5.40;;;2.75;;
50122;SDS011;36021;48.670;6.184;2023-03-24T12:44:38;3.38;;;2.53;;
50122;SDS011;36021;48.670;6.184;2023-03-24T12:47:40;2.85;;;1.20;;
50122;SDS011;36021;48.670;6.184;2023-03-24T12:50:23;2.83;;;0.90;;
50122;SDS011;36021;48.670;6.184;2023-03-24T12:55:53;0.55;;;0.22;;
50122;SDS011;36021;48.670;6.184;2023-03-24T13:01:04;1.05;;;0.43;;
50122;SDS011;36021;48.670;6.184;2023-03-24T13:03:45;3.45;;;0.80;;
50122;SDS011;36021;48.670;6.184;2023-03-24T13:06:19;0.93;;;0.50;;
50122;SDS011;36021;48.670;6.184;2023-03-24T13:12:11;1.80;;;0.98;;
50122;SDS011;36021;48.670;6.184;2023-03-24T13:17:17;1.92;;;0.50;;
50122;SDS011;36021;48.670;6.184;2023-03-24T13:19:57;6.90;;;0.57;;
50122;SDS011;36021;48.670;6.184;2023-03-24T13:22:26;3.47;;;0.80;;
50122;SDS011;36021;48.670;6.184;2023-03-24T13:24:53;1.50;;;0.45;;
50122;SDS011;36021;48.670;6.184;2023-03-24T13:27:24;2.92;;;0.80;;
50122;SDS011;36021;48.670;6.184;2023-03-24T13:32:56;2.30;;;0.40;;
50122;SDS011;36021;48.670;6.184;2023-03-24T13:38:40;3.78;;;0.90;;
50122;SDS011;36021;48.670;6.184;2023-03-24T13:41:16;0.85;;;0.77;;
50122;SDS011;36021;48.670;6.184;2023-03-24T13:43:56;1.83;;;0.75;;
50122;SDS011;36021;48.670;6.184;2023-03-24T13:46:24;1.77;;;0.93;;
50122;SDS011;36021;48.670;6.184;2023-03-24T13:48:50;3.33;;;0.85;;
50122;SDS011;36021;48.670;6.184;2023-03-24T13:51:29;3.83;;;0.77;;
50122;SDS011;36021;48.670;6.184;2023-03-24T13:53:57;2.97;;;0.65;;
50122;SDS011;36021;48.670;6.184;2023-03-24T13:56:31;1.60;;;0.90;;
50122;SDS011;36021;48.670;6.184;2023-03-24T14:04:47;0.77;;;0.40;;
50122;SDS011;36021;48.670;6.184;2023-03-24T14:07:32;1.02;;;0.70;;
50122;SDS011;36021;48.670;6.184;2023-03-24T14:23:30;0.40;;;0.40;;
50122;SDS011;36021;48.670;6.184;2023-03-24T14:26:02;1.75;;;0.90;;
50122;SDS011;36021;48.670;6.184;2023-03-24T14:31:15;1.00;;;0.52;;
50122;SDS011;36021;48.670;6.184;2023-03-24T14:39:35;3.47;;;0.60;;
50122;SDS011;36021;48.670;6.184;2023-03-24T14:44:55;1.38;;;0.63;;
50122;SDS011;36021;48.670;6.184;2023-03-24T14:47:26;2.75;;;0.82;;
50122;SDS011;36021;48.670;6.184;2023-03-24T14:49:56;1.35;;;0.60;;
50122;SDS011;36021;48.670;6.184;2023-03-24T14:55:08;1.30;;;1.05;;
50122;SDS011;36021;48.670;6.184;2023-03-24T14:57:44;1.17;;;0.35;;
50122;SDS011;36021;48.670;6.184;2023-03-24T15:00:25;0.88;;;0.80;;
50122;SDS011;36021;48.670;6.184;2023-03-24T15:02:59;1.17;;;0.63;;
50122;SDS011;36021;48.670;6.184;2023-03-24T15:10:41;2.95;;;0.80;;
50122;SDS011;36021;48.670;6.184;2023-03-24T15:16:00;3.60;;;1.23;;
50122;SDS011;36021;48.670;6.184;2023-03-24T15:18:48;2.35;;;0.68;;
50122;SDS011;36021;48.670;6.184;2023-03-24T15:21:31;1.48;;;0.90;;
50122;SDS011;36021;48.670;6.184;2023-03-24T15:23:59;4.60;;;0.98;;
50122;SDS011;36021;48.670;6.184;2023-03-24T15:26:26;2.75;;;0.70;;
50122;SDS011;36021;48.670;6.184;2023-03-24T15:28:54;0.77;;;0.47;;
50122;SDS011;36021;48.670;6.184;2023-03-24T15:31:30;2.85;;;0.80;;
50122;SDS011;36021;48.670;6.184;2023-03-24T15:36:37;2.28;;;0.98;;
50122;SDS011;36021;48.670;6.184;2023-03-24T15:39:17;2.42;;;0.75;;
50122;SDS011;36021;48.670;6.184;2023-03-24T15:41:45;1.92;;;0.77;;
50122;SDS011;36021;48.670;6.184;2023-03-24T15:44:16;2.28;;;0.95;;
50122;SDS011;36021;48.670;6.184;2023-03-24T15:46:44;1.42;;;0.52;;
50122;SDS011;36021;48.670;6.184;2023-03-24T15:49:45;3.13;;;1.33;;
50122;SDS011;36021;48.670;6.184;2023-03-24T15:55:08;5.03;;;0.75;;
50122;SDS011;36021;48.670;6.184;2023-03-24T15:57:58;0.50;;;0.50;;
50122;SDS011;36021;48.670;6.184;2023-03-24T16:00:27;0.77;;;0.45;;
50122;SDS011;36021;48.670;6.184;2023-03-24T16:02:55;2.90;;;1.20;;
50122;SDS011;36021;48.670;6.184;2023-03-24T16:05:27;2.20;;;0.77;;
50122;SDS011;36021;48.670;6.184;2023-03-24T16:10:35;0.85;;;0.52;;
50122;SDS011;36021;48.670;6.184;2023-03-24T16:13:16;1.27;;;0.70;;
50122;SDS011;36021;48.670;6.184;2023-03-24T16:18:17;0.77;;;0.60;;
50122;SDS011;36021;48.670;6.184;2023-03-24T16:20:45;1.38;;;1.00;;
50122;SDS011;36021;48.670;6.184;2023-03-24T16:23:11;4.50;;;0.55;;
50122;SDS011;36021;48.670;6.184;2023-03-24T16:25:37;5.68;;;1.27;;
50122;SDS011;36021;48.670;6.184;2023-03-24T16:28:03;2.03;;;1.05;;
50122;SDS011;36021;48.670;6.184;2023-03-24T16:30:29;1.98;;;0.52;;
50122;SDS011;36021;48.670;6.184;2023-03-24T16:33:02;2.88;;;1.00;;
50122;SDS011;36021;48.670;6.184;2023-03-24T16:35:28;1.08;;;0.77;;
50122;SDS011;36021;48.670;6.184;2023-03-24T16:37:54;2.30;;;0.63;;
50122;SDS011;36021;48.670;6.184;2023-03-24T16:43:11;2.38;;;0.80;;
50122;SDS011;36021;48.670;6.184;2023-03-24T16:45:37;3.70;;;0.90;;
50122;SDS011;36021;48.670;6.184;2023-03-24T16:48:02;1.60;;;0.80;;
50122;SDS011;36021;48.670;6.184;2023-03-24T16:50:30;0.95;;;0.75;;
50122;SDS011;36021;48.670;6.184;2023-03-24T16:52:58;6.68;;;0.90;;
50122;SDS011;36021;48.670;6.184;2023-03-24T16:55:26;2.58;;;0.65;;
50122;SDS011;36021;48.670;6.184;2023-03-24T16:57:52;5.45;;;1.02;;
50122;SDS011;36021;48.670;6.184;2023-03-24T17:00:20;0.93;;;0.63;;
50122;SDS011;36021;48.670;6.184;2023-03-24T17:02:46;4.40;;;1.45;;
50122;SDS011;36021;48.670;6.184;2023-03-24T17:05:18;1.98;;;0.70;;
50122;SDS011;36021;48.670;6.184;2023-03-24T17:07:46;2.47;;;0.70;;
50122;SDS011;36021;48.670;6.184;2023-03-24T17:10:13;1.45;;;0.55;;
50122;SDS011;36021;48.670;6.184;2023-03-24T17:12:38;5.70;;;0.85;;
50122;SDS011;36021;48.670;6.184;2023-03-24T17:15:05;0.93;;;0.47;;
50122;SDS011;36021;48.670;6.184;2023-03-24T17:17:32;3.05;;;1.00;;
50122;SDS011;36021;48.670;6.184;2023-03-24T17:19:58;1.60;;;0.73;;
50122;SDS011;36021;48.670;6.184;2023-03-24T17:22:24;1.23;;;1.05;;
50122;SDS011;36021;48.670;6.184;2023-03-24T17:24:50;0.95;;;0.68;;
50122;SDS011;36021;48.670;6.184;2023-03-24T17:27:22;3.35;;;0.65;;
50122;SDS011;36021;48.670;6.184;2023-03-24T17:29:48;2.20;;;1.02;;
50122;SDS011;36021;48.670;6.184;2023-03-24T17:32:14;2.90;;;1.08;;
50122;SDS011;36021;48.670;6.184;2023-03-24T17:34:43;0.65;;;0.65;;
50122;SDS011;36021;48.670;6.184;2023-03-24T17:37:09;4.07;;;0.60;;
50122;SDS011;36021;48.670;6.184;2023-03-24T17:39:35;2.97;;;0.40;;
50122;SDS011;36021;48.670;6.184;2023-03-24T17:42:02;1.35;;;0.60;;
50122;SDS011;36021;48.670;6.184;2023-03-24T17:44:28;3.05;;;1.02;;
50122;SDS011;36021;48.670;6.184;2023-03-24T17:46:54;1.45;;;0.80;;
50122;SDS011;36021;48.670;6.184;2023-03-24T17:49:20;1.23;;;0.50;;
50122;SDS011;36021;48.670;6.184;2023-03-24T17:51:46;4.18;;;0.88;;
50122;SDS011;36021;48.670;6.184;2023-03-24T17:54:11;1.00;;;1.00;;
50122;SDS011;36021;48.670;6.184;2023-03-24T17:56:38;1.45;;;0.88;;
50122;SDS011;36021;48.670;6.184;2023-03-24T17:59:05;1.17;;;0.40;;
50122;SDS011;36021;48.670;6.184;2023-03-24T18:01:31;1.10;;;1.00;;
50122;SDS011;36021;48.670;6.184;2023-03-24T18:03:59;3.07;;;0.90;;
50122;SDS011;36021;48.670;6.184;2023-03-24T18:06:25;2.63;;;0.70;;
50122;SDS011;36021;48.670;6.184;2023-03-24T18:08:51;3.22;;;0.90;;
50122;SDS011;36021;48.670;6.184;2023-03-24T18:11:18;1.55;;;0.57;;
50122;SDS011;36021;48.670;6.184;2023-03-24T18:13:43;3.53;;;1.08;;
50122;SDS011;36021;48.670;6.184;2023-03-24T18:16:09;3.85;;;0.90;;